Orbital elements of COSMOS 1275 DEB
| Launched | 3 June 1981 |
| Flight ended | – |
| Launch site | Plesetsk Missile and Space Complex, Russia |
| Owner | Commonwealth of Independent States (former USSR) |
| NORAD ID | 13490 |
| Date fetched |
Epoch osculation |
Inc. [°] |
Ecc. | RA asc node [hr] |
Arg Peri. [°] |
Mean anom [°] |
Mean motion [rev/day] |
Abs. mag |
| Date fetched |
Epoch osculation |
Inc. [°] |
Ecc. | RA asc node [hr] |
Arg Peri. [°] |
Mean anom [°] |
Mean motion [rev/day] |
Abs. mag |
| 2026 May 08 17:57 | 2026 May 05 02:09:04 | 82.8330 | 0.00636 | 9.2831 | 210.3855 | 214.3583 | 13.77553 | – |
| 2026 May 07 17:58 | 2026 May 05 02:09:04 | 82.8330 | 0.00636 | 9.2831 | 210.3855 | 214.3583 | 13.77553 | – |
| 2026 May 06 17:57 | 2026 May 05 02:09:04 | 82.8330 | 0.00636 | 9.2831 | 210.3855 | 214.3583 | 13.77553 | – |
| 2026 May 05 17:57 | 2026 May 05 02:09:04 | 82.8330 | 0.00636 | 9.2831 | 210.3855 | 214.3583 | 13.77553 | – |
| 2026 May 04 17:57 | 2026 Apr 30 12:47:16 | 82.8332 | 0.00633 | 9.5125 | 223.3223 | 214.3583 | 13.77553 | – |
| 2026 May 03 17:57 | 2026 Apr 30 12:47:16 | 82.8332 | 0.00633 | 9.5125 | 223.3223 | 214.3583 | 13.77553 | – |
| 2026 May 02 17:57 | 2026 Apr 30 12:47:16 | 82.8332 | 0.00633 | 9.5125 | 223.3223 | 214.3583 | 13.77553 | – |
| 2026 May 01 17:56 | 2026 Apr 30 12:47:16 | 82.8332 | 0.00633 | 9.5125 | 223.3223 | 214.3583 | 13.77553 | – |
| 2026 Apr 30 17:56 | 2026 Apr 30 12:47:16 | 82.8332 | 0.00633 | 9.5125 | 223.3223 | 214.3583 | 13.77553 | – |
| 2026 Apr 29 17:57 | 2026 Apr 22 20:05:58 | 82.8343 | 0.00628 | 9.9000 | 245.1822 | 214.3583 | 13.77553 | – |
| 2026 Apr 28 17:56 | 2026 Apr 22 20:05:58 | 82.8343 | 0.00628 | 9.9000 | 245.1822 | 214.3583 | 13.77553 | – |
| 2026 Apr 27 17:58 | 2026 Apr 22 20:05:58 | 82.8343 | 0.00628 | 9.9000 | 245.1822 | 214.3583 | 13.77553 | – |
| 2026 Apr 26 17:58 | 2026 Apr 22 20:05:58 | 82.8343 | 0.00628 | 9.9000 | 245.1822 | 214.3583 | 13.77553 | – |
| 2026 Apr 25 17:58 | 2026 Apr 22 20:05:58 | 82.8343 | 0.00628 | 9.9000 | 245.1822 | 214.3583 | 13.77553 | – |
| 2026 Apr 24 17:59 | 2026 Apr 22 20:05:58 | 82.8343 | 0.00628 | 9.9000 | 245.1822 | 214.3583 | 13.77553 | – |
| 2026 Apr 23 17:57 | 2026 Apr 19 13:35:23 | 82.8349 | 0.00627 | 10.0647 | 254.5135 | 214.3583 | 13.77553 | – |
| 2026 Apr 22 17:57 | 2026 Apr 19 13:35:23 | 82.8349 | 0.00627 | 10.0647 | 254.5135 | 214.3583 | 13.77553 | – |
| 2026 Apr 21 17:57 | 2026 Apr 19 13:35:23 | 82.8349 | 0.00627 | 10.0647 | 254.5135 | 214.3583 | 13.77553 | – |
| 2026 Apr 20 17:57 | 2026 Apr 19 13:35:23 | 82.8349 | 0.00627 | 10.0647 | 254.5135 | 214.3583 | 13.77553 | – |
| 2026 Apr 19 17:58 | 2026 Apr 19 13:35:23 | 82.8349 | 0.00627 | 10.0647 | 254.5135 | 214.3583 | 13.77553 | – |
| 2026 Apr 18 17:56 | 2026 Apr 12 14:11:30 | 82.8358 | 0.00625 | 10.4158 | 274.4393 | 214.3583 | 13.77553 | – |
| 2026 Apr 16 17:57 | 2026 Apr 12 14:11:30 | 82.8358 | 0.00625 | 10.4158 | 274.4393 | 214.3583 | 13.77553 | – |
| 2026 Apr 14 17:57 | 2026 Apr 12 14:11:30 | 82.8358 | 0.00625 | 10.4158 | 274.4393 | 214.3583 | 13.77553 | – |
| 2026 Apr 13 17:57 | 2026 Apr 12 14:11:30 | 82.8358 | 0.00625 | 10.4158 | 274.4393 | 214.3583 | 13.77553 | – |
| 2026 Apr 12 17:57 | 2026 Apr 08 16:05:00 | 82.8363 | 0.00625 | 10.6132 | 285.6671 | 214.3583 | 13.77553 | – |
| 2026 Apr 11 17:57 | 2026 Apr 08 16:05:00 | 82.8363 | 0.00625 | 10.6132 | 285.6671 | 214.3583 | 13.77553 | – |